Terminal Aerodrome Forecast
Issued by NWS

Home | Current Version | Previous Version | Text Only | Print | Product List | Glossary On
Versions: 1 2 3 4 5 6 7 8 9 10 11 12 13 14 15 16 17 18 19
516
FTUS41 KBGM 202158 AAB
TAFELM
TAF AMD
KELM 202158Z 2022/2118 VRB05KT P6SM SCT035 BKN100
     FM210700 VRB03KT 2SM BR OVC007
      TEMPO 2108/2112 3/4SM BR OVC002
     FM211400 30008KT P6SM SCT250=

USA.gov is the U.S. government's official web portal to all federal, state and local government web resources and services.